createdAt,value
2019-02-07T00:00:40.024Z,1014.76
2019-02-07T00:01:40.027Z,1014.78
2019-02-07T00:02:40.002Z,1014.76
2019-02-07T00:03:40.005Z,1014.73
2019-02-07T00:04:39.980Z,1014.77
2019-02-07T00:05:39.984Z,1014.74
2019-02-07T00:06:39.983Z,1014.74
2019-02-07T00:07:39.967Z,1014.74
2019-02-07T00:08:39.933Z,1014.73
2019-02-07T00:09:39.924Z,1014.74
2019-02-07T00:10:39.932Z,1014.77
2019-02-07T00:11:39.937Z,1014.79
2019-02-07T00:12:39.892Z,1014.78
2019-02-07T00:13:39.894Z,1014.76
2019-02-07T00:14:40.088Z,1014.77
2019-02-07T00:15:39.859Z,1014.70
2019-02-07T00:16:39.863Z,1014.66
2019-02-07T00:17:39.857Z,1014.62
2019-02-07T00:18:39.826Z,1014.60
2019-02-07T00:19:39.812Z,1014.61
2019-02-07T00:20:39.804Z,1014.57
2019-02-07T00:21:39.812Z,1014.55
2019-02-07T00:22:39.855Z,1014.58
2019-02-07T00:23:39.771Z,1014.57
2019-02-07T00:24:42.977Z,1014.57
2019-02-07T00:25:39.747Z,1014.53
2019-02-07T00:26:39.749Z,1014.49
2019-02-07T00:27:39.726Z,1014.49
2019-02-07T00:28:39.729Z,1014.50
2019-02-07T00:29:39.706Z,1014.41
2019-02-07T00:30:39.694Z,1014.41
2019-02-07T00:31:39.695Z,1014.43
2019-02-07T00:32:39.669Z,1014.39
2019-02-07T00:33:39.664Z,1014.37
2019-02-07T00:34:39.658Z,1014.38
2019-02-07T00:35:39.645Z,1014.40
2019-02-07T00:36:39.699Z,1014.44
2019-02-07T00:37:39.614Z,1014.37
2019-02-07T00:38:39.613Z,1014.33
2019-02-07T00:39:39.606Z,1014.31
2019-02-07T00:40:39.578Z,1014.28
2019-02-07T00:41:39.587Z,1014.27
2019-02-07T00:42:39.562Z,1014.33
2019-02-07T00:43:39.553Z,1014.27
2019-02-07T00:44:50.203Z,1014.27
2019-02-07T00:45:40.520Z,1014.23
2019-02-07T00:46:39.538Z,1014.27
2019-02-07T00:47:39.499Z,1014.25
2019-02-07T00:48:39.505Z,1014.28
2019-02-07T00:49:39.485Z,1014.29
2019-02-07T00:50:39.467Z,1014.30
2019-02-07T00:51:39.482Z,1014.29
2019-02-07T00:52:39.447Z,1014.32
2019-02-07T00:53:39.432Z,1014.33
2019-02-07T00:54:39.420Z,1014.28
2019-02-07T00:55:39.417Z,1014.24
2019-02-07T00:56:39.924Z,1014.26
2019-02-07T00:57:39.424Z,1014.26
2019-02-07T00:58:39.376Z,1014.19
2019-02-07T00:59:39.380Z,1014.20
2019-02-07T01:00:39.358Z,1014.20
2019-02-07T01:01:39.351Z,1014.21
2019-02-07T01:02:39.357Z,1014.21
2019-02-07T01:03:39.428Z,1014.19
2019-02-07T01:04:39.317Z,1014.14
2019-02-07T01:05:39.304Z,1014.14
2019-02-07T01:06:39.294Z,1014.14
2019-02-07T01:07:39.312Z,1014.19
2019-02-07T01:08:39.277Z,1014.19
2019-02-07T01:09:39.277Z,1014.17
2019-02-07T01:10:39.250Z,1014.17
2019-02-07T01:11:39.235Z,1014.19
2019-02-07T01:12:39.252Z,1014.19
2019-02-07T01:13:39.217Z,1014.13
2019-02-07T01:14:39.212Z,1014.13
2019-02-07T01:15:39.210Z,1014.17
2019-02-07T01:16:39.176Z,1014.13
2019-02-07T01:17:39.183Z,1014.08
2019-02-07T01:18:39.158Z,1014.07
2019-02-07T01:19:39.147Z,1014.06
2019-02-07T01:20:39.143Z,1014.07
2019-02-07T01:21:39.121Z,1014.03
2019-02-07T01:22:39.135Z,1014.01
2019-02-07T01:23:39.100Z,1013.94
2019-02-07T01:24:39.093Z,1013.93
2019-02-07T01:25:39.100Z,1013.92
2019-02-07T01:26:39.082Z,1013.91
2019-02-07T01:27:39.060Z,1013.85
2019-02-07T01:28:39.042Z,1013.83
2019-02-07T01:29:39.039Z,1013.79
2019-02-07T01:30:39.053Z,1013.77
2019-02-07T01:31:39.020Z,1013.74
2019-02-07T01:32:39.022Z,1013.66
2019-02-07T01:33:38.987Z,1013.69
2019-02-07T01:34:38.984Z,1013.69
2019-02-07T01:35:38.966Z,1013.69
2019-02-07T01:36:38.958Z,1013.72
2019-02-07T01:37:38.966Z,1013.66
2019-02-07T01:38:38.933Z,1013.72
2019-02-07T01:39:38.920Z,1013.68
2019-02-07T01:40:38.921Z,1013.64
2019-02-07T01:41:38.920Z,1013.65
2019-02-07T01:42:38.890Z,1013.63
2019-02-07T01:43:38.903Z,1013.59
2019-02-07T01:44:38.872Z,1013.59
2019-02-07T01:45:38.858Z,1013.56
2019-02-07T01:46:38.855Z,1013.57
2019-02-07T01:47:38.838Z,1013.55
2019-02-07T01:48:38.859Z,1013.60
2019-02-07T01:49:38.824Z,1013.59
2019-02-07T01:50:38.799Z,1013.59
2019-02-07T01:51:38.789Z,1013.55
2019-02-07T01:52:38.781Z,1013.56
2019-02-07T01:53:38.802Z,1013.53
2019-02-07T01:54:38.764Z,1013.53
2019-02-07T01:55:38.748Z,1013.51
2019-02-07T01:56:38.736Z,1013.51
2019-02-07T01:57:38.738Z,1013.47
2019-02-07T01:58:38.804Z,1013.43
2019-02-07T01:59:38.705Z,1013.45
2019-02-07T02:00:38.701Z,1013.42
2019-02-07T02:01:38.772Z,1013.37
2019-02-07T02:02:38.707Z,1013.37
2019-02-07T02:03:38.673Z,1013.38
2019-02-07T02:04:38.658Z,1013.40
2019-02-07T02:05:38.642Z,1013.41
2019-02-07T02:06:38.630Z,1013.42
2019-02-07T02:07:38.611Z,1013.44
2019-02-07T02:08:38.616Z,1013.50
2019-02-07T02:09:38.588Z,1013.45
2019-02-07T02:10:38.586Z,1013.41
2019-02-07T02:11:38.582Z,1013.42
2019-02-07T02:12:38.557Z,1013.40
2019-02-07T02:13:38.569Z,1013.31
2019-02-07T02:14:38.535Z,1013.31
2019-02-07T02:15:38.521Z,1013.31
2019-02-07T02:16:38.519Z,1013.28
2019-02-07T02:17:38.509Z,1013.22
2019-02-07T02:18:38.524Z,1013.27
2019-02-07T02:19:38.483Z,1013.24
2019-02-07T02:20:38.466Z,1013.21
2019-02-07T02:21:38.458Z,1013.18
2019-02-07T02:22:38.450Z,1013.16
2019-02-07T02:23:38.457Z,1013.13
2019-02-07T02:24:38.438Z,1013.14
2019-02-07T02:25:38.419Z,1013.06
2019-02-07T02:26:38.408Z,1013.07
2019-02-07T02:27:38.394Z,1013.09
2019-02-07T02:28:38.408Z,1013.10
2019-02-07T02:29:38.369Z,1013.12
2019-02-07T02:30:38.384Z,1013.13
2019-02-07T02:31:38.350Z,1013.16
2019-02-07T02:32:38.339Z,1013.12
2019-02-07T02:33:38.339Z,1013.11
2019-02-07T02:34:38.331Z,1013.11
2019-02-07T02:35:38.305Z,1013.01
2019-02-07T02:36:38.294Z,1012.97
2019-02-07T02:37:38.292Z,1012.99
2019-02-07T02:38:38.270Z,1013.00
2019-02-07T02:39:38.278Z,1012.89
2019-02-07T02:40:38.249Z,1012.90
2019-02-07T02:41:38.252Z,1012.86
2019-02-07T02:42:38.230Z,1012.86
2019-02-07T02:43:38.217Z,1012.88
2019-02-07T02:44:38.217Z,1012.86
2019-02-07T02:45:38.212Z,1012.84
2019-02-07T02:46:38.263Z,1012.81
2019-02-07T02:47:38.217Z,1012.76
2019-02-07T02:48:38.278Z,1012.75
2019-02-07T02:49:38.175Z,1012.75
2019-02-07T02:50:38.143Z,1012.72
2019-02-07T02:51:38.127Z,1012.72
2019-02-07T02:52:40.257Z,1012.71
2019-02-07T02:53:38.101Z,1012.75
2019-02-07T02:54:38.132Z,1012.70
2019-02-07T02:55:38.193Z,1012.61
2019-02-07T02:56:38.070Z,1012.59
2019-02-07T02:57:38.065Z,1012.63
2019-02-07T02:58:38.052Z,1012.58
2019-02-07T02:59:38.096Z,1012.53
2019-02-07T03:00:38.028Z,1012.55
2019-02-07T03:01:38.013Z,1012.52
2019-02-07T03:02:38.019Z,1012.48
2019-02-07T03:03:37.995Z,1012.49
2019-02-07T03:04:38.004Z,1012.43
2019-02-07T03:05:38.016Z,1012.50
2019-02-07T03:06:37.961Z,1012.50
2019-02-07T03:07:37.952Z,1012.47
2019-02-07T03:08:37.942Z,1012.49
2019-02-07T03:09:37.935Z,1012.47
2019-02-07T03:10:37.957Z,1012.47
2019-02-07T03:11:37.912Z,1012.49
2019-02-07T03:12:37.898Z,1012.46
2019-02-07T03:13:37.885Z,1012.44
2019-02-07T03:14:37.868Z,1012.47
2019-02-07T03:15:48.752Z,1012.48
2019-02-07T03:16:38.851Z,1012.42
2019-02-07T03:17:37.913Z,1012.45
2019-02-07T03:18:37.829Z,1012.45
2019-02-07T03:19:37.814Z,1012.46
2019-02-07T03:20:37.824Z,1012.45
2019-02-07T03:21:37.797Z,1012.45
2019-02-07T03:22:37.789Z,1012.52
2019-02-07T03:23:37.780Z,1012.46
2019-02-07T03:24:37.798Z,1012.51
2019-02-07T03:25:37.818Z,1012.46
2019-02-07T03:26:37.745Z,1012.46
2019-02-07T03:27:37.731Z,1012.41
2019-02-07T03:28:37.719Z,1012.37
2019-02-07T03:29:37.708Z,1012.33
2019-02-07T03:30:37.719Z,1012.32
2019-02-07T03:31:37.694Z,1012.32
2019-02-07T03:32:37.683Z,1012.30
2019-02-07T03:33:37.665Z,1012.31
2019-02-07T03:34:37.652Z,1012.27
2019-02-07T03:35:37.688Z,1012.24
2019-02-07T03:36:37.643Z,1012.20
2019-02-07T03:37:37.619Z,1012.19
2019-02-07T03:38:37.617Z,1012.16
2019-02-07T03:39:37.603Z,1012.16
2019-02-07T03:40:37.820Z,1012.14
2019-02-07T03:41:37.582Z,1012.09
2019-02-07T03:42:37.560Z,1012.12
2019-02-07T03:43:37.554Z,1012.14
2019-02-07T03:44:37.550Z,1012.10
2019-02-07T03:45:37.556Z,1012.09
2019-02-07T03:46:37.522Z,1012.04
2019-02-07T03:47:37.514Z,1012.01
2019-02-07T03:48:37.496Z,1011.98
2019-02-07T03:49:37.488Z,1011.98
2019-02-07T03:50:37.474Z,1011.96
2019-02-07T03:51:37.486Z,1012.03
2019-02-07T03:52:37.456Z,1012.00
2019-02-07T03:53:37.456Z,1011.98
2019-02-07T03:54:37.430Z,1011.92
2019-02-07T03:55:37.425Z,1011.91
2019-02-07T03:56:37.464Z,1011.89
2019-02-07T03:57:37.399Z,1011.90
2019-02-07T03:58:37.383Z,1011.94
2019-02-07T03:59:37.373Z,1011.95
2019-02-07T04:00:37.368Z,1011.94
2019-02-07T04:01:37.373Z,1011.90
2019-02-07T04:02:40.494Z,1011.87
2019-02-07T04:03:37.331Z,1011.90
2019-02-07T04:04:37.321Z,1011.90
2019-02-07T04:05:37.313Z,1011.85
2019-02-07T04:06:37.322Z,1011.88
2019-02-07T04:07:37.290Z,1011.90
2019-02-07T04:08:37.283Z,1011.86
2019-02-07T04:09:37.270Z,1011.85
2019-02-07T04:10:37.256Z,1011.84
2019-02-07T04:11:37.276Z,1011.81
2019-02-07T04:12:37.234Z,1011.83
2019-02-07T04:13:37.233Z,1011.83
2019-02-07T04:14:37.213Z,1011.83
2019-02-07T04:15:37.210Z,1011.83
2019-02-07T04:16:37.207Z,1011.81
2019-02-07T04:17:37.174Z,1011.79
2019-02-07T04:18:37.167Z,1011.82
2019-02-07T04:19:37.164Z,1011.80
2019-02-07T04:20:37.144Z,1011.78
2019-02-07T04:21:37.154Z,1011.80
2019-02-07T04:22:37.126Z,1011.74
2019-02-07T04:23:37.121Z,1011.77
2019-02-07T04:24:37.099Z,1011.78
2019-02-07T04:25:37.091Z,1011.75
2019-02-07T04:26:37.129Z,1011.77
2019-02-07T04:27:37.074Z,1011.78
2019-02-07T04:28:37.050Z,1011.75
2019-02-07T04:29:37.054Z,1011.74
2019-02-07T04:30:37.032Z,1011.75
2019-02-07T04:31:37.060Z,1011.69
2019-02-07T04:32:37.035Z,1011.67
2019-02-07T04:33:37.002Z,1011.65
2019-02-07T04:34:37.006Z,1011.60
2019-02-07T04:35:36.987Z,1011.59
2019-02-07T04:36:36.978Z,1011.58
2019-02-07T04:37:36.976Z,1011.56
2019-02-07T04:38:36.942Z,1011.52
2019-02-07T04:39:36.938Z,1011.52
2019-02-07T04:40:36.924Z,1011.54
2019-02-07T04:41:36.921Z,1011.48
2019-02-07T04:42:36.931Z,1011.54
2019-02-07T04:43:36.894Z,1011.52
2019-02-07T04:44:36.886Z,1011.49
2019-02-07T04:45:36.866Z,1011.44
2019-02-07T04:46:36.851Z,1011.40
2019-02-07T04:47:36.871Z,1011.38
2019-02-07T04:48:36.835Z,1011.40
2019-02-07T04:49:36.821Z,1011.39
2019-02-07T04:50:36.809Z,1011.37
2019-02-07T04:51:36.799Z,1011.38
2019-02-07T04:52:36.806Z,1011.35
2019-02-07T04:53:36.779Z,1011.32
2019-02-07T04:54:36.812Z,1011.32
2019-02-07T04:55:36.758Z,1011.29
2019-02-07T04:56:36.748Z,1011.27
2019-02-07T04:57:36.747Z,1011.31
2019-02-07T04:58:36.734Z,1011.24
2019-02-07T04:59:36.713Z,1011.27
2019-02-07T05:00:36.706Z,1011.25
2019-02-07T05:01:36.697Z,1011.25
2019-02-07T05:02:36.708Z,1011.26
2019-02-07T05:03:36.666Z,1011.24
2019-02-07T05:04:36.655Z,1011.26
2019-02-07T05:05:36.658Z,1011.26
2019-02-07T05:06:36.649Z,1011.25
2019-02-07T05:07:36.628Z,1011.23
2019-02-07T05:08:36.632Z,1011.22
2019-02-07T05:09:36.604Z,1011.14
2019-02-07T05:10:36.589Z,1011.09
2019-02-07T05:11:36.586Z,1011.08
2019-02-07T05:12:36.577Z,1011.06
2019-02-07T05:13:36.581Z,1010.96
2019-02-07T05:14:36.545Z,1010.99
2019-02-07T05:15:36.565Z,1011.01
2019-02-07T05:16:39.801Z,1011.04
2019-02-07T05:17:37.516Z,1011.01
2019-02-07T05:18:36.524Z,1011.04
2019-02-07T05:19:36.493Z,1011.00
2019-02-07T05:20:36.480Z,1011.02
2019-02-07T05:21:36.464Z,1011.07
2019-02-07T05:22:36.463Z,1011.07
2019-02-07T05:23:36.464Z,1011.05
2019-02-07T05:24:36.439Z,1011.03
2019-02-07T05:25:36.425Z,1011.03
2019-02-07T05:26:36.420Z,1010.99
2019-02-07T05:27:36.405Z,1011.01
2019-02-07T05:28:36.405Z,1010.96
2019-02-07T05:29:36.396Z,1010.90
2019-02-07T05:30:36.369Z,1010.90
2019-02-07T05:31:36.357Z,1010.82
2019-02-07T05:32:36.570Z,1010.85
2019-02-07T05:33:36.355Z,1010.83
2019-02-07T05:34:36.330Z,1010.84
2019-02-07T05:35:36.330Z,1010.78
2019-02-07T05:36:36.302Z,1010.77
2019-02-07T05:37:36.295Z,1010.76
2019-02-07T05:38:36.304Z,1010.73
2019-02-07T05:39:36.265Z,1010.78
2019-02-07T05:40:36.265Z,1010.74
2019-02-07T05:41:36.247Z,1010.70
2019-02-07T05:42:36.238Z,1010.69
2019-02-07T05:43:36.253Z,1010.73
2019-02-07T05:44:36.227Z,1010.73
2019-02-07T05:45:36.202Z,1010.71
2019-02-07T05:46:36.190Z,1010.79
2019-02-07T05:47:36.182Z,1010.75
2019-02-07T05:48:36.170Z,1010.76
2019-02-07T05:49:36.316Z,1010.75
2019-02-07T05:50:36.152Z,1010.74
2019-02-07T05:51:36.133Z,1010.80
2019-02-07T05:52:36.129Z,1010.79
2019-02-07T05:53:36.114Z,1010.76
2019-02-07T05:54:36.133Z,1010.73
2019-02-07T05:55:36.095Z,1010.75
2019-02-07T05:56:36.081Z,1010.69
2019-02-07T05:57:36.070Z,1010.71
2019-02-07T05:58:36.062Z,1010.65
2019-02-07T05:59:36.071Z,1010.65
2019-02-07T06:00:36.048Z,1010.73
2019-02-07T06:01:36.025Z,1010.74
2019-02-07T06:02:36.016Z,1010.75
2019-02-07T06:03:36.008Z,1010.69
2019-02-07T06:04:36.042Z,1010.65
2019-02-07T06:05:35.982Z,1010.63
2019-02-07T06:06:35.974Z,1010.62
2019-02-07T06:07:35.967Z,1010.60
2019-02-07T06:08:35.943Z,1010.60
2019-02-07T06:09:35.984Z,1010.63
2019-02-07T06:10:35.931Z,1010.58
2019-02-07T06:11:35.916Z,1010.62
2019-02-07T06:12:35.913Z,1010.65
2019-02-07T06:13:35.896Z,1010.64
2019-02-07T06:14:35.895Z,1010.62
2019-02-07T06:15:35.898Z,1010.60
2019-02-07T06:16:35.863Z,1010.61
2019-02-07T06:17:35.854Z,1010.65
2019-02-07T06:18:35.844Z,1010.58
2019-02-07T06:19:36.813Z,1010.54
2019-02-07T06:20:35.839Z,1010.55
2019-02-07T06:21:35.807Z,1010.53
2019-02-07T06:22:35.893Z,1010.54
2019-02-07T06:23:35.789Z,1010.53
2019-02-07T06:24:35.774Z,1010.55
2019-02-07T06:25:35.789Z,1010.53
2019-02-07T06:26:35.751Z,1010.52
2019-02-07T06:27:35.753Z,1010.58
2019-02-07T06:28:35.730Z,1010.53
2019-02-07T06:29:35.729Z,1010.57
2019-02-07T06:30:35.735Z,1010.52
2019-02-07T06:31:35.712Z,1010.55
2019-02-07T06:32:36.765Z,1010.62
2019-02-07T06:33:35.683Z,1010.61
2019-02-07T06:34:35.706Z,1010.53
2019-02-07T06:35:35.689Z,1010.56
2019-02-07T06:36:35.660Z,1010.49
2019-02-07T06:37:35.632Z,1010.46
2019-02-07T06:38:35.624Z,1010.44
2019-02-07T06:39:35.627Z,1010.39
2019-02-07T06:40:35.599Z,1010.44
2019-02-07T06:41:35.606Z,1010.36
2019-02-07T06:42:35.573Z,1010.34
2019-02-07T06:43:35.567Z,1010.34
2019-02-07T06:44:35.557Z,1010.39
2019-02-07T06:45:35.551Z,1010.30
2019-02-07T06:46:35.565Z,1010.28
2019-02-07T06:47:35.523Z,1010.27
2019-02-07T06:48:35.518Z,1010.22
2019-02-07T06:49:35.498Z,1010.17
2019-02-07T06:50:35.486Z,1010.18
2019-02-07T06:51:35.502Z,1010.12
2019-02-07T06:52:35.471Z,1010.14
2019-02-07T06:53:35.461Z,1010.09
2019-02-07T06:54:35.452Z,1010.10
2019-02-07T06:55:35.431Z,1010.15
2019-02-07T06:56:35.469Z,1010.14
2019-02-07T06:57:35.411Z,1010.11
2019-02-07T06:58:35.407Z,1010.17
2019-02-07T06:59:35.391Z,1010.14
2019-02-07T07:00:35.408Z,1010.11
2019-02-07T07:01:35.368Z,1010.10
2019-02-07T07:02:35.378Z,1010.12
2019-02-07T07:03:35.359Z,1010.08
2019-02-07T07:04:35.329Z,1010.14
2019-02-07T07:05:35.329Z,1010.12
2019-02-07T07:06:35.311Z,1010.10
2019-02-07T07:07:35.321Z,1010.10
2019-02-07T07:08:35.304Z,1010.07
2019-02-07T07:09:35.282Z,1010.04
2019-02-07T07:10:35.278Z,1010.03
2019-02-07T07:11:35.266Z,1010.01
2019-02-07T07:12:35.270Z,1009.95
2019-02-07T07:13:35.243Z,1009.96
2019-02-07T07:14:35.220Z,1009.99
2019-02-07T07:15:35.220Z,1009.98
2019-02-07T07:16:35.201Z,1009.90
2019-02-07T07:17:35.325Z,1009.97
2019-02-07T07:18:35.177Z,1009.92
2019-02-07T07:19:35.165Z,1009.92
2019-02-07T07:20:35.156Z,1009.89
2019-02-07T07:21:35.154Z,1009.93
2019-02-07T07:22:35.164Z,1009.92
2019-02-07T07:23:35.119Z,1009.90
2019-02-07T07:24:35.118Z,1009.99
2019-02-07T07:25:35.107Z,1009.95
2019-02-07T07:26:35.090Z,1009.94
2019-02-07T07:27:35.091Z,1009.91
2019-02-07T07:28:35.089Z,1009.88
2019-02-07T07:29:35.053Z,1009.94
2019-02-07T07:30:35.050Z,1009.94
2019-02-07T07:31:35.031Z,1009.91
2019-02-07T07:32:35.021Z,1009.93
2019-02-07T07:33:35.025Z,1009.94
2019-02-07T07:34:34.997Z,1009.90
2019-02-07T07:35:34.990Z,1009.94
2019-02-07T07:36:35.003Z,1009.94
2019-02-07T07:37:34.985Z,1009.93
2019-02-07T07:38:34.983Z,1009.87
2019-02-07T07:39:34.949Z,1009.90
2019-02-07T07:40:34.931Z,1009.86
2019-02-07T07:41:34.924Z,1009.83
2019-02-07T07:42:34.915Z,1009.86
2019-02-07T07:43:34.925Z,1009.78
2019-02-07T07:44:34.897Z,1009.83
2019-02-07T07:45:34.877Z,1009.87
2019-02-07T07:46:34.865Z,1009.90
2019-02-07T07:47:36.226Z,1009.91
2019-02-07T07:48:34.874Z,1009.97
2019-02-07T07:49:34.841Z,1009.93
2019-02-07T07:50:34.827Z,1009.95
2019-02-07T07:51:34.815Z,1009.92
2019-02-07T07:52:34.800Z,1009.89
2019-02-07T07:53:34.846Z,1009.87
2019-02-07T07:54:34.795Z,1009.82
2019-02-07T07:55:34.773Z,1009.87
2019-02-07T07:56:34.769Z,1009.80
2019-02-07T07:57:34.748Z,1009.80
2019-02-07T07:58:34.881Z,1009.77
2019-02-07T07:59:34.731Z,1009.79
2019-02-07T08:00:34.732Z,1009.76
2019-02-07T08:01:34.715Z,1009.73
2019-02-07T08:02:34.688Z,1009.70
2019-02-07T08:03:34.682Z,1009.66
2019-02-07T08:04:34.688Z,1009.69
2019-02-07T08:05:34.671Z,1009.70
2019-02-07T08:06:34.648Z,1009.67
2019-02-07T08:07:34.631Z,1009.63
2019-02-07T08:08:34.632Z,1009.60
2019-02-07T08:09:34.631Z,1009.56
2019-02-07T08:10:34.603Z,1009.50
2019-02-07T08:11:34.595Z,1009.52
2019-02-07T08:12:34.587Z,1009.50
2019-02-07T08:13:34.576Z,1009.50
2019-02-07T08:14:34.587Z,1009.52
2019-02-07T08:15:34.545Z,1009.54
2019-02-07T08:16:34.538Z,1009.53
2019-02-07T08:17:34.526Z,1009.56
2019-02-07T08:18:34.524Z,1009.53
2019-02-07T08:19:34.525Z,1009.58
2019-02-07T08:20:34.493Z,1009.52
2019-02-07T08:21:34.485Z,1009.53
2019-02-07T08:22:34.475Z,1009.47
2019-02-07T08:23:34.460Z,1009.44
2019-02-07T08:24:34.489Z,1009.38
2019-02-07T08:25:34.436Z,1009.30
2019-02-07T08:26:34.421Z,1009.36
2019-02-07T08:27:34.414Z,1009.32
2019-02-07T08:28:34.412Z,1009.32
2019-02-07T08:29:34.418Z,1009.30
2019-02-07T08:30:36.408Z,1009.28
2019-02-07T08:31:34.373Z,1009.29
2019-02-07T08:32:34.357Z,1009.25
2019-02-07T08:33:34.347Z,1009.22
2019-02-07T08:34:34.341Z,1009.24
2019-02-07T08:35:34.343Z,1009.18
2019-02-07T08:36:34.330Z,1009.13
2019-02-07T08:37:34.298Z,1009.13
2019-02-07T08:38:34.298Z,1009.09
2019-02-07T08:39:34.281Z,1009.09
2019-02-07T08:40:34.283Z,1009.08
2019-02-07T08:41:34.255Z,1009.04
2019-02-07T08:42:34.267Z,1009.03
2019-02-07T08:43:34.239Z,1008.99
2019-02-07T08:44:34.236Z,1008.94
2019-02-07T08:45:34.244Z,1008.96
2019-02-07T08:46:34.235Z,1008.95
2019-02-07T08:47:34.236Z,1008.94
2019-02-07T08:48:34.185Z,1008.89
2019-02-07T08:49:34.174Z,1008.92
2019-02-07T08:50:34.182Z,1008.92
2019-02-07T08:51:34.160Z,1008.92
2019-02-07T08:52:34.186Z,1008.91
2019-02-07T08:53:34.176Z,1008.88
2019-02-07T08:54:34.110Z,1008.87
2019-02-07T08:55:35.063Z,1008.85
2019-02-07T08:56:34.107Z,1008.82
2019-02-07T08:57:34.081Z,1008.82
2019-02-07T08:58:34.090Z,1008.83
2019-02-07T08:59:34.053Z,1008.79
2019-02-07T09:00:34.063Z,1008.76
2019-02-07T09:01:34.058Z,1008.75
2019-02-07T09:02:34.023Z,1008.75
2019-02-07T09:03:34.026Z,1008.75
2019-02-07T09:04:34.029Z,1008.78
2019-02-07T09:05:33.989Z,1008.74
2019-02-07T09:06:33.997Z,1008.78
2019-02-07T09:07:33.980Z,1008.74
2019-02-07T09:08:33.966Z,1008.67
2019-02-07T09:09:33.952Z,1008.69
2019-02-07T09:10:33.937Z,1008.66
2019-02-07T09:11:33.950Z,1008.62
2019-02-07T09:12:33.909Z,1008.65
2019-02-07T09:13:33.904Z,1008.62
2019-02-07T09:14:33.895Z,1008.56
2019-02-07T09:15:33.892Z,1008.52
2019-02-07T09:16:33.903Z,1008.55
2019-02-07T09:17:33.855Z,1008.56
2019-02-07T09:18:33.852Z,1008.54
2019-02-07T09:19:33.833Z,1008.50
2019-02-07T09:20:33.834Z,1008.50
2019-02-07T09:21:33.857Z,1008.48
2019-02-07T09:22:33.802Z,1008.48
2019-02-07T09:23:33.791Z,1008.50
2019-02-07T09:24:33.781Z,1008.49
2019-02-07T09:25:34.509Z,1008.46
2019-02-07T09:26:33.808Z,1008.40
2019-02-07T09:27:33.755Z,1008.45
2019-02-07T09:28:33.735Z,1008.47
2019-02-07T09:29:33.728Z,1008.43
2019-02-07T09:30:33.722Z,1008.46
2019-02-07T09:31:33.705Z,1008.45
2019-02-07T09:32:33.717Z,1008.45
2019-02-07T09:33:33.690Z,1008.50
2019-02-07T09:34:33.669Z,1008.35
2019-02-07T09:35:33.655Z,1008.42
2019-02-07T09:36:33.651Z,1008.39
2019-02-07T09:37:33.659Z,1008.46
2019-02-07T09:38:33.633Z,1008.43
2019-02-07T09:39:33.614Z,1008.43
2019-02-07T09:40:33.602Z,1008.38
2019-02-07T09:41:33.590Z,1008.42
2019-02-07T09:42:33.603Z,1008.40
2019-02-07T09:43:33.577Z,1008.41
2019-02-07T09:44:33.558Z,1008.41
2019-02-07T09:45:33.549Z,1008.38
2019-02-07T09:46:33.534Z,1008.39
2019-02-07T09:47:33.554Z,1008.34
2019-02-07T09:48:33.515Z,1008.34
2019-02-07T09:49:33.505Z,1008.31
2019-02-07T09:50:33.495Z,1008.30
2019-02-07T09:51:33.500Z,1008.31
2019-02-07T09:52:33.471Z,1008.25
2019-02-07T09:53:33.483Z,1008.28
2019-02-07T09:54:33.451Z,1008.25
2019-02-07T09:55:33.448Z,1008.21
2019-02-07T09:56:33.438Z,1008.19
2019-02-07T09:57:33.411Z,1008.18
2019-02-07T09:58:33.428Z,1008.20
2019-02-07T09:59:33.391Z,1008.14
2019-02-07T10:00:33.378Z,1008.15
2019-02-07T10:01:33.378Z,1008.15
2019-02-07T10:02:33.472Z,1008.20
2019-02-07T10:03:33.369Z,1008.19
2019-02-07T10:04:33.345Z,1008.21
2019-02-07T10:05:33.322Z,1008.25
2019-02-07T10:06:33.327Z,1008.24
2019-02-07T10:07:33.336Z,1008.20
2019-02-07T10:08:33.329Z,1008.21
2019-02-07T10:09:33.280Z,1008.23
2019-02-07T10:10:33.275Z,1008.23
2019-02-07T10:11:33.268Z,1008.25
2019-02-07T10:12:33.264Z,1008.30
2019-02-07T10:13:33.294Z,1008.33
2019-02-07T10:14:33.259Z,1008.25
2019-02-07T10:15:33.211Z,1008.18
2019-02-07T10:16:33.209Z,1008.17
2019-02-07T10:17:33.187Z,1008.23
2019-02-07T10:18:33.413Z,1008.19
2019-02-07T10:19:33.204Z,1008.18
2019-02-07T10:20:33.159Z,1008.21
2019-02-07T10:21:33.149Z,1008.22
2019-02-07T10:22:33.151Z,1008.19
2019-02-07T10:23:33.126Z,1008.25
2019-02-07T10:24:33.135Z,1008.24
2019-02-07T10:25:33.104Z,1008.19
2019-02-07T10:26:33.097Z,1008.16
2019-02-07T10:27:33.081Z,1008.06
2019-02-07T10:28:33.071Z,1008.06
2019-02-07T10:29:33.081Z,1008.04
2019-02-07T10:30:33.065Z,1008.07
2019-02-07T10:31:33.033Z,1008.01
2019-02-07T10:32:33.022Z,1007.92
2019-02-07T10:33:33.014Z,1007.92
2019-02-07T10:34:33.028Z,1007.95
2019-02-07T10:35:32.988Z,1007.89
2019-02-07T10:36:32.981Z,1007.92
2019-02-07T10:37:32.970Z,1007.82
2019-02-07T10:38:32.955Z,1007.83
2019-02-07T10:39:32.962Z,1007.78
2019-02-07T10:40:32.946Z,1007.77
2019-02-07T10:41:32.933Z,1007.79
2019-02-07T10:42:32.905Z,1007.71
2019-02-07T10:43:32.901Z,1007.68
2019-02-07T10:44:32.889Z,1007.61
2019-02-07T10:45:32.894Z,1007.56
2019-02-07T10:46:32.870Z,1007.53
2019-02-07T10:47:32.864Z,1007.48
2019-02-07T10:48:43.968Z,1007.39
2019-02-07T10:49:33.862Z,1007.49
2019-02-07T10:50:32.844Z,1007.48
2019-02-07T10:51:32.821Z,1007.50
2019-02-07T10:52:32.806Z,1007.53
2019-02-07T10:53:32.788Z,1007.48
2019-02-07T10:54:32.776Z,1007.45
2019-02-07T10:55:32.782Z,1007.35
2019-02-07T10:56:32.765Z,1007.43
2019-02-07T10:57:32.772Z,1007.46
2019-02-07T10:58:32.733Z,1007.50
2019-02-07T10:59:32.716Z,1007.51
2019-02-07T11:00:32.749Z,1007.50
2019-02-07T11:01:32.698Z,1007.44
2019-02-07T11:02:32.684Z,1007.41
2019-02-07T11:03:32.675Z,1007.34
2019-02-07T11:04:32.662Z,1007.27
2019-02-07T11:05:32.648Z,1007.28
2019-02-07T11:06:32.658Z,1007.26
2019-02-07T11:07:32.628Z,1007.24
2019-02-07T11:08:32.618Z,1007.22
2019-02-07T11:09:32.604Z,1007.23
2019-02-07T11:10:32.599Z,1007.24
2019-02-07T11:11:32.611Z,1007.18
2019-02-07T11:12:32.583Z,1007.17
2019-02-07T11:13:32.573Z,1007.14
2019-02-07T11:14:32.643Z,1007.16
2019-02-07T11:15:32.550Z,1007.19
2019-02-07T11:16:32.547Z,1007.14
2019-02-07T11:17:32.519Z,1007.11
2019-02-07T11:18:32.508Z,1007.14
2019-02-07T11:19:32.511Z,1007.18
2019-02-07T11:20:32.486Z,1007.17
2019-02-07T11:21:32.490Z,1007.13
2019-02-07T11:22:32.464Z,1007.18
2019-02-07T11:23:32.449Z,1007.15
2019-02-07T11:24:32.447Z,1007.05
2019-02-07T11:25:32.432Z,1007.01
2019-02-07T11:26:32.458Z,1006.97
2019-02-07T11:27:32.405Z,1007.02
2019-02-07T11:28:32.395Z,1006.94
2019-02-07T11:29:32.388Z,1006.98
2019-02-07T11:30:32.373Z,1006.92
2019-02-07T11:31:32.401Z,1006.90
2019-02-07T11:32:32.350Z,1006.94
2019-02-07T11:33:32.341Z,1007.04
2019-02-07T11:34:32.329Z,1006.90
2019-02-07T11:35:32.318Z,1006.86
2019-02-07T11:36:32.306Z,1006.88
2019-02-07T11:37:32.325Z,1006.92
2019-02-07T11:38:32.283Z,1006.84
2019-02-07T11:39:32.268Z,1006.81
2019-02-07T11:40:32.259Z,1006.78
2019-02-07T11:41:32.245Z,1006.76
2019-02-07T11:42:32.251Z,1006.75
2019-02-07T11:43:32.248Z,1006.76
2019-02-07T11:44:32.262Z,1006.81
2019-02-07T11:45:32.199Z,1006.81
2019-02-07T11:46:37.341Z,1006.77
2019-02-07T11:47:33.196Z,1006.71
2019-02-07T11:48:32.171Z,1006.54
2019-02-07T11:49:32.159Z,1006.53
2019-02-07T11:50:32.152Z,1006.46
2019-02-07T11:51:32.140Z,1006.48
2019-02-07T11:52:32.141Z,1006.53
2019-02-07T11:53:32.148Z,1006.54
2019-02-07T11:54:32.097Z,1006.55
2019-02-07T11:55:32.107Z,1006.55
2019-02-07T11:56:32.077Z,1006.59
2019-02-07T11:57:32.139Z,1006.55
2019-02-07T11:58:32.073Z,1006.51
2019-02-07T11:59:32.045Z,1006.48
2019-02-07T12:00:32.031Z,1006.45
2019-02-07T12:01:32.034Z,1006.49
2019-02-07T12:02:32.006Z,1006.50
2019-02-07T12:03:32.020Z,1006.48
2019-02-07T12:04:31.981Z,1006.47
2019-02-07T12:05:31.995Z,1006.44